createdAt,value
2018-11-05T00:01:50.296Z,137.97
2018-11-05T00:04:21.161Z,123.83
2018-11-05T00:06:52.496Z,145.60
2018-11-05T00:09:23.686Z,131.03
2018-11-05T00:11:54.541Z,133.03
2018-11-05T00:14:25.675Z,135.80
2018-11-05T00:16:56.578Z,147.80
2018-11-05T00:19:27.521Z,135.63
2018-11-05T00:21:59.259Z,133.27
2018-11-05T00:24:30.357Z,136.23
2018-11-05T00:27:01.245Z,138.23
2018-11-05T00:29:32.410Z,137.73
2018-11-05T00:32:03.855Z,144.33
2018-11-05T00:34:34.816Z,133.90
2018-11-05T00:37:06.396Z,150.40
2018-11-05T00:39:37.314Z,137.50
2018-11-05T00:42:08.229Z,125.07
2018-11-05T00:44:39.618Z,139.27
2018-11-05T00:47:11.436Z,132.27
2018-11-05T00:49:42.257Z,134.83
2018-11-05T00:52:13.168Z,138.70
2018-11-05T00:54:44.701Z,139.60
2018-11-05T00:57:15.866Z,114.27
2018-11-05T00:59:47.045Z,120.23
2018-11-05T01:02:19.065Z,128.80
2018-11-05T01:04:50.495Z,120.13
2018-11-05T01:07:21.510Z,129.43
2018-11-05T01:09:52.777Z,120.23
2018-11-05T01:12:23.811Z,115.37
2018-11-05T01:14:56.031Z,121.67
2018-11-05T01:17:26.895Z,119.70
2018-11-05T01:19:57.858Z,119.70
2018-11-05T01:22:28.806Z,113.33
2018-11-05T01:25:00.103Z,109.10
2018-11-05T01:27:31.288Z,103.73
2018-11-05T01:30:02.247Z,106.27
2018-11-05T01:32:33.183Z,110.00
2018-11-05T01:35:04.414Z,109.93
2018-11-05T01:37:35.271Z,119.03
2018-11-05T01:40:07.899Z,112.70
2018-11-05T01:42:39.194Z,127.33
2018-11-05T01:45:12.164Z,123.50
2018-11-05T01:47:44.143Z,111.57
2018-11-05T01:50:16.716Z,113.67
2018-11-05T01:52:47.604Z,107.57
2018-11-05T01:55:19.527Z,109.77
2018-11-05T01:57:50.439Z,115.07
2018-11-05T02:00:21.339Z,110.60
2018-11-05T02:02:52.260Z,103.47
2018-11-05T02:05:23.578Z,106.93
2018-11-05T02:07:54.558Z,114.53
2018-11-05T02:10:25.640Z,111.40
2018-11-05T02:12:56.766Z,110.63
2018-11-05T02:15:28.093Z,113.93
2018-11-05T02:17:58.992Z,112.33
2018-11-05T02:20:30.336Z,112.93
2018-11-05T02:23:01.289Z,105.97
2018-11-05T02:25:32.227Z,109.83
2018-11-05T02:28:03.252Z,105.00
2018-11-05T02:30:34.451Z,114.80
2018-11-05T02:33:05.522Z,96.80
2018-11-05T02:35:36.485Z,104.20
2018-11-05T02:38:07.507Z,105.30
2018-11-05T02:40:38.427Z,114.33
2018-11-05T02:43:09.715Z,101.03
2018-11-05T02:45:40.602Z,107.13
2018-11-05T02:48:11.592Z,102.93
2018-11-05T02:50:42.583Z,102.33
2018-11-05T02:53:13.894Z,106.30
2018-11-05T02:55:44.963Z,94.93
2018-11-05T02:58:15.858Z,100.60
2018-11-05T03:00:46.816Z,111.00
2018-11-05T03:03:17.922Z,108.87
2018-11-05T03:05:48.771Z,104.50
2018-11-05T03:08:19.739Z,100.13
2018-11-05T03:10:50.639Z,110.37
2018-11-05T03:13:21.576Z,99.73
2018-11-05T03:15:52.505Z,106.60
2018-11-05T03:18:23.433Z,110.23
2018-11-05T03:20:54.385Z,102.53
2018-11-05T03:23:25.780Z,107.43
2018-11-05T03:25:56.776Z,111.13
2018-11-05T03:28:27.657Z,102.37
2018-11-05T03:30:58.859Z,98.77
2018-11-05T03:33:29.838Z,111.80
2018-11-05T03:36:00.970Z,96.33
2018-11-05T03:38:31.708Z,96.77
2018-11-05T03:41:02.669Z,98.90
2018-11-05T03:43:33.646Z,108.57
2018-11-05T03:46:04.574Z,110.97
2018-11-05T03:48:35.518Z,92.60
2018-11-05T03:51:06.772Z,94.50
2018-11-05T03:53:37.737Z,104.17
2018-11-05T03:56:09.631Z,104.57
2018-11-05T03:58:40.532Z,107.67
2018-11-05T04:01:11.834Z,100.33
2018-11-05T04:03:42.834Z,109.47
2018-11-05T04:06:13.674Z,102.30
2018-11-05T04:08:44.657Z,105.23
2018-11-05T04:11:15.561Z,101.60
2018-11-05T04:13:47.506Z,102.00
2018-11-05T04:16:18.479Z,105.93
2018-11-05T04:18:50.004Z,106.97
2018-11-05T04:21:21.305Z,105.60
2018-11-05T04:23:52.315Z,100.93
2018-11-05T04:26:23.525Z,111.53
2018-11-05T04:28:54.443Z,110.63
2018-11-05T04:31:25.704Z,109.20
2018-11-05T04:33:57.040Z,109.23
2018-11-05T04:36:28.365Z,103.40
2018-11-05T04:38:59.311Z,99.63
2018-11-05T04:41:30.695Z,101.10
2018-11-05T04:44:02.285Z,102.83
2018-11-05T04:46:33.401Z,111.47
2018-11-05T04:49:04.328Z,98.70
2018-11-05T04:51:35.266Z,92.93
2018-11-05T04:54:06.755Z,112.67
2018-11-05T04:56:37.690Z,104.63
2018-11-05T04:59:09.184Z,102.73
2018-11-05T05:01:40.205Z,101.53
2018-11-05T05:04:11.233Z,98.13
2018-11-05T05:06:42.435Z,106.27
2018-11-05T05:09:13.892Z,106.57
2018-11-05T05:11:45.142Z,91.17
2018-11-05T05:14:16.363Z,95.93
2018-11-05T05:16:47.832Z,94.63
2018-11-05T05:19:19.370Z,98.93
2018-11-05T05:21:50.638Z,98.67
2018-11-05T05:24:21.682Z,91.93
2018-11-05T05:54:33.241Z,66.20
2018-11-05T05:57:04.424Z,68.67
2018-11-05T05:59:35.367Z,78.57
2018-11-05T06:02:06.507Z,73.73
2018-11-05T06:04:37.694Z,74.13
2018-11-05T06:07:09.164Z,79.93
2018-11-05T06:09:40.294Z,84.67
2018-11-05T06:12:11.156Z,89.50
2018-11-05T06:14:42.762Z,87.33
2018-11-05T06:17:13.543Z,91.80
2018-11-05T06:19:44.758Z,79.43
2018-11-05T06:22:15.990Z,90.60
2018-11-05T06:24:46.830Z,87.60
2018-11-05T06:27:17.693Z,87.27
2018-11-05T06:29:48.590Z,101.30
2018-11-05T06:32:19.493Z,93.07
2018-11-05T06:34:50.944Z,97.20
2018-11-05T06:37:22.374Z,97.40
2018-11-05T06:39:53.239Z,96.10
2018-11-05T06:42:24.072Z,96.73
2018-11-05T06:44:54.932Z,96.13
2018-11-05T06:47:25.745Z,91.43
2018-11-05T06:49:56.610Z,106.47
2018-11-05T06:52:27.468Z,99.13
2018-11-05T06:54:58.324Z,98.43
2018-11-05T06:57:29.211Z,92.17
2018-11-05T07:00:00.013Z,99.70
2018-11-05T07:02:31.255Z,101.40
2018-11-05T07:05:02.114Z,92.50
2018-11-05T07:07:33.474Z,96.97
2018-11-05T07:10:04.422Z,99.20
2018-11-05T07:12:35.307Z,98.17
2018-11-05T07:15:06.949Z,102.13
2018-11-05T07:17:37.894Z,104.10
2018-11-05T07:20:12.374Z,101.90
2018-11-05T07:22:43.783Z,100.40
2018-11-05T07:25:15.643Z,99.30
2018-11-05T07:27:46.921Z,97.73
2018-11-05T07:30:22.344Z,100.27
2018-11-05T07:32:54.560Z,99.90
2018-11-05T07:35:25.472Z,93.53
2018-11-05T07:37:56.338Z,91.50
2018-11-05T07:40:27.244Z,92.30
2018-11-05T07:42:58.125Z,87.50
2018-11-05T07:45:29.315Z,84.83
2018-11-05T07:48:00.470Z,82.80
2018-11-05T07:50:31.658Z,76.80
2018-11-05T07:53:03.028Z,79.40
2018-11-05T07:55:33.935Z,74.67
2018-11-05T07:58:05.086Z,81.77
2018-11-05T08:00:53.305Z,68.33
2018-11-05T08:03:24.405Z,72.77
2018-11-05T08:05:55.685Z,63.40
2018-11-05T08:08:26.669Z,64.77
2018-11-05T08:10:57.762Z,60.00
2018-11-05T08:13:28.672Z,62.07
2018-11-05T08:16:00.296Z,57.10
2018-11-05T08:18:31.152Z,60.63
2018-11-05T08:21:02.007Z,64.10
2018-11-05T08:23:32.875Z,61.40
2018-11-05T08:26:03.739Z,58.87
2018-11-05T08:28:34.864Z,53.07
2018-11-05T08:31:06.638Z,56.70
2018-11-05T08:33:37.811Z,55.60
2018-11-05T08:36:08.969Z,56.60
2018-11-05T08:38:39.851Z,54.80
2018-11-05T08:41:10.987Z,55.13
2018-11-05T08:43:41.896Z,55.97
2018-11-05T08:46:13.019Z,56.83
2018-11-05T08:48:43.887Z,52.43
2018-11-05T08:51:15.135Z,50.57
2018-11-05T08:53:45.685Z,45.83
2018-11-05T08:56:16.515Z,51.97
2018-11-05T08:58:47.663Z,49.07
2018-11-05T09:01:19.214Z,50.77
2018-11-05T09:03:51.174Z,48.33
2018-11-05T09:06:22.037Z,42.67
2018-11-05T09:08:53.312Z,46.47
2018-11-05T09:11:24.516Z,45.27
2018-11-05T09:13:55.204Z,45.33
2018-11-05T09:16:26.383Z,47.20
2018-11-05T09:18:57.526Z,49.27
2018-11-05T09:21:28.443Z,45.63
2018-11-05T09:23:59.693Z,43.07
2018-11-05T09:26:30.807Z,46.03
2018-11-05T09:29:01.785Z,41.63
2018-11-05T09:31:33.065Z,41.33
2018-11-05T09:34:04.289Z,40.37
2018-11-05T09:36:35.456Z,38.60
2018-11-05T09:39:08.343Z,40.33
2018-11-05T09:41:39.228Z,40.43
2018-11-05T09:44:10.411Z,37.80
2018-11-05T09:46:41.260Z,38.40
2018-11-05T09:49:12.168Z,38.70
2018-11-05T09:51:43.093Z,40.43
2018-11-05T09:54:13.942Z,41.77
2018-11-05T09:56:45.352Z,38.53
2018-11-05T09:59:16.294Z,39.70
2018-11-05T10:01:47.160Z,36.80
2018-11-05T10:04:18.145Z,35.90
2018-11-05T10:06:49.430Z,34.10
2018-11-05T10:09:20.350Z,40.53
2018-11-05T10:11:51.168Z,31.40
2018-11-05T10:14:22.038Z,31.83
2018-11-05T10:16:53.430Z,35.93
2018-11-05T10:19:24.308Z,33.43
2018-11-05T10:21:57.983Z,32.07
2018-11-05T10:24:29.181Z,37.37
2018-11-05T10:27:00.529Z,30.00
2018-11-05T10:29:31.477Z,40.63
2018-11-05T10:32:02.553Z,36.97
2018-11-05T10:34:33.418Z,30.60
2018-11-05T10:37:04.296Z,30.57
2018-11-05T10:39:54.047Z,33.53
2018-11-05T10:42:25.223Z,33.57
2018-11-05T10:44:56.403Z,31.37
2018-11-05T10:47:27.561Z,33.37
2018-11-05T10:49:59.016Z,27.77
2018-11-05T10:52:30.160Z,30.33
2018-11-05T10:55:01.114Z,28.30
2018-11-05T11:00:03.269Z,28.30
2018-11-05T11:02:41.313Z,28.50
2018-11-05T11:05:12.383Z,28.00
2018-11-05T11:07:43.332Z,24.90
2018-11-05T11:10:14.221Z,25.00
2018-11-05T11:12:45.273Z,20.57
2018-11-05T11:15:16.395Z,22.93
2018-11-05T11:17:47.185Z,20.13
2018-11-05T11:20:18.073Z,22.93
2018-11-05T11:22:49.199Z,21.43
2018-11-05T11:25:20.208Z,23.23
2018-11-05T11:27:51.181Z,19.00
2018-11-05T11:30:22.326Z,24.33
2018-11-05T11:32:53.691Z,21.00
2018-11-05T11:35:24.592Z,20.20
2018-11-05T11:37:55.463Z,21.17
2018-11-05T11:40:26.340Z,23.13
2018-11-05T11:42:57.186Z,22.77
2018-11-05T11:45:28.058Z,22.97
2018-11-05T11:47:58.992Z,24.70
2018-11-05T11:50:29.878Z,24.03
2018-11-05T11:53:01.081Z,19.93
2018-11-05T11:55:31.955Z,24.37
2018-11-05T11:58:02.819Z,23.47
2018-11-05T12:00:33.971Z,19.77
2018-11-05T12:03:04.831Z,24.03
2018-11-05T12:05:35.989Z,23.03
2018-11-05T12:08:07.076Z,25.57
2018-11-05T12:10:37.964Z,22.30
2018-11-05T12:13:08.845Z,18.03
2018-11-05T12:15:39.761Z,18.43
2018-11-05T12:18:10.665Z,22.03
2018-11-05T12:20:41.540Z,21.73
2018-11-05T12:23:12.411Z,19.90
2018-11-05T12:25:43.646Z,18.80
2018-11-05T12:28:14.504Z,20.37
2018-11-05T12:30:45.367Z,21.07
2018-11-05T12:33:16.465Z,17.80
2018-11-05T12:35:47.319Z,21.40
2018-11-05T12:38:18.441Z,22.73
2018-11-05T12:40:49.329Z,24.43
2018-11-05T12:43:20.175Z,24.30
2018-11-05T12:45:51.289Z,28.60
2018-11-05T12:48:22.261Z,28.40
2018-11-05T12:50:53.073Z,30.67
2018-11-05T12:53:24.184Z,27.57
2018-11-05T12:55:55.100Z,28.73
2018-11-05T12:58:25.899Z,27.03
2018-11-05T13:03:28.148Z,23.10
2018-11-05T13:05:58.998Z,24.50
2018-11-05T13:08:29.850Z,19.87
2018-11-05T13:11:00.960Z,21.40
2018-11-05T13:13:31.833Z,19.70
2018-11-05T13:16:02.681Z,21.60
2018-11-05T13:18:33.808Z,21.13
2018-11-05T13:21:04.652Z,20.13
2018-11-05T13:23:38.955Z,18.70
2018-11-05T13:26:09.843Z,20.30
2018-11-05T13:28:41.242Z,18.87
2018-11-05T13:31:12.110Z,17.33
2018-11-05T13:33:42.946Z,19.73
2018-11-05T13:36:13.812Z,19.57
2018-11-05T13:38:44.989Z,20.13
2018-11-05T13:41:16.257Z,18.30
2018-11-05T13:43:47.098Z,18.10
2018-11-05T13:46:18.203Z,18.27
2018-11-05T13:48:49.677Z,16.07
2018-11-05T13:51:19.918Z,16.73
2018-11-05T13:53:51.261Z,17.73
2018-11-05T13:56:22.142Z,16.53
2018-11-05T13:58:52.997Z,19.77
2018-11-05T14:01:24.194Z,19.93
2018-11-05T14:03:55.133Z,21.33
2018-11-05T14:06:25.998Z,15.93
2018-11-05T14:08:57.191Z,20.37
2018-11-05T14:11:28.105Z,15.77
2018-11-05T14:13:58.967Z,17.67
2018-11-05T14:16:29.907Z,17.70
2018-11-05T14:19:00.623Z,17.17
2018-11-05T14:21:31.457Z,16.20
2018-11-05T14:24:02.385Z,17.47
2018-11-05T14:26:33.262Z,17.33
2018-11-05T14:29:04.557Z,21.20
2018-11-05T14:31:35.088Z,16.47
2018-11-05T14:34:06.241Z,15.80
2018-11-05T14:36:37.188Z,14.33
2018-11-05T14:39:13.176Z,15.83
2018-11-05T14:41:44.315Z,16.63
2018-11-05T14:44:15.248Z,20.50
2018-11-05T14:46:46.104Z,14.73
2018-11-05T14:49:16.956Z,17.83
2018-11-05T14:51:48.055Z,15.93
2018-11-05T14:54:19.031Z,14.43
2018-11-05T14:56:49.872Z,15.83
2018-11-05T14:59:20.808Z,16.00
2018-11-05T15:02:10.316Z,17.43
2018-11-05T15:04:41.139Z,19.63
2018-11-05T15:07:12.041Z,17.00
2018-11-05T15:09:42.857Z,14.90
2018-11-05T15:12:13.968Z,18.40
2018-11-05T15:14:45.412Z,15.07
2018-11-05T15:17:16.551Z,18.57
2018-11-05T15:19:47.819Z,17.63
2018-11-05T15:22:18.459Z,17.63
2018-11-05T15:24:49.610Z,16.13
2018-11-05T15:27:20.457Z,14.83
2018-11-05T15:29:51.349Z,17.30
2018-11-05T15:32:22.294Z,18.53
2018-11-05T15:34:53.197Z,16.43
2018-11-05T15:37:24.600Z,18.20
2018-11-05T15:39:55.421Z,16.93
2018-11-05T15:42:26.555Z,17.53
2018-11-05T15:44:57.407Z,19.73
2018-11-05T15:47:28.228Z,18.03
2018-11-05T15:49:59.089Z,16.00
2018-11-05T15:52:30.456Z,18.80
2018-11-05T15:55:01.336Z,17.80
2018-11-05T15:57:32.434Z,15.97
2018-11-05T16:00:03.417Z,19.87
2018-11-05T16:02:34.257Z,22.20
2018-11-05T16:05:05.396Z,19.23
2018-11-05T16:07:36.230Z,18.93
2018-11-05T16:10:09.039Z,20.83
2018-11-05T16:12:40.026Z,19.67
2018-11-05T16:15:11.965Z,18.50
2018-11-05T16:17:43.107Z,18.97
2018-11-05T16:20:19.033Z,16.70
2018-11-05T16:22:51.043Z,19.67
2018-11-05T16:25:21.936Z,19.20
2018-11-05T16:27:52.790Z,16.80
2018-11-05T16:30:23.790Z,18.40
2018-11-05T16:32:54.564Z,17.73
2018-11-05T16:35:25.500Z,18.63
2018-11-05T16:37:56.623Z,19.93
2018-11-05T16:40:27.531Z,18.17
2018-11-05T16:42:58.604Z,22.10
2018-11-05T16:45:29.466Z,19.87
2018-11-05T16:48:00.297Z,19.07
2018-11-05T16:50:31.197Z,19.07
2018-11-05T16:53:02.573Z,21.73
2018-11-05T16:55:33.704Z,22.87
2018-11-05T16:58:04.884Z,17.33
2018-11-05T17:00:35.858Z,19.27
2018-11-05T17:03:07.422Z,18.20
2018-11-05T17:05:38.238Z,19.97
2018-11-05T17:08:09.082Z,18.33
2018-11-05T17:10:39.964Z,19.50
2018-11-05T17:13:11.117Z,20.47
2018-11-05T17:15:42.216Z,20.23
2018-11-05T17:18:13.892Z,22.20
2018-11-05T17:20:46.649Z,19.23
2018-11-05T17:23:17.491Z,19.60
2018-11-05T17:25:48.374Z,18.23
2018-11-05T17:28:19.599Z,23.57
2018-11-05T17:30:50.460Z,20.30
2018-11-05T17:33:21.588Z,19.73
2018-11-05T17:35:52.444Z,17.47
2018-11-05T17:38:23.302Z,19.33
2018-11-05T17:40:54.423Z,17.57
2018-11-05T17:43:25.921Z,16.37
2018-11-05T17:45:56.761Z,17.87
2018-11-05T17:48:27.637Z,17.30
2018-11-05T17:50:58.855Z,19.93
2018-11-05T17:53:30.314Z,18.77
2018-11-05T17:56:01.449Z,20.10
2018-11-05T17:58:32.426Z,22.73
2018-11-05T18:01:03.808Z,19.73
2018-11-05T18:03:34.780Z,16.13
2018-11-05T18:06:05.745Z,23.37
2018-11-05T18:08:36.717Z,16.77
2018-11-05T18:11:07.930Z,17.93
2018-11-05T18:13:39.309Z,20.10
2018-11-05T18:16:10.837Z,18.80
2018-11-05T18:18:42.116Z,19.83
2018-11-05T18:21:14.127Z,20.37
2018-11-05T18:23:45.399Z,17.73
2018-11-05T18:26:16.921Z,16.63
2018-11-05T18:28:48.162Z,19.27
2018-11-05T18:31:19.068Z,22.67
2018-11-05T18:33:49.955Z,19.17
2018-11-05T18:36:21.195Z,16.43
2018-11-05T18:38:52.171Z,22.70
2018-11-05T18:41:24.012Z,24.50
2018-11-05T18:43:55.152Z,26.13
2018-11-05T18:46:26.178Z,21.87
2018-11-05T18:48:57.587Z,19.70
2018-11-05T18:51:28.470Z,22.30
2018-11-05T18:53:59.377Z,17.53
2018-11-05T18:56:30.302Z,22.23
2018-11-05T18:59:01.500Z,23.47
2018-11-05T19:01:32.334Z,16.70
2018-11-05T19:04:03.545Z,19.37
2018-11-05T19:06:34.731Z,19.63
2018-11-05T19:09:07.735Z,20.83
2018-11-05T19:11:38.931Z,21.73
2018-11-05T19:14:09.958Z,18.53
2018-11-05T19:16:41.213Z,20.77
2018-11-05T19:19:12.474Z,22.77
2018-11-05T19:21:43.466Z,24.03
2018-11-05T19:24:14.791Z,33.30
2018-11-05T19:26:45.702Z,35.97
2018-11-05T19:29:16.954Z,32.57
2018-11-05T19:31:48.720Z,32.27
2018-11-05T19:34:19.987Z,28.83
2018-11-05T19:36:50.923Z,24.97
2018-11-05T19:39:22.097Z,27.17
2018-11-05T19:41:53.467Z,27.77
2018-11-05T19:44:24.339Z,28.33
2018-11-05T19:46:56.095Z,27.63
2018-11-05T19:49:27.315Z,26.27
2018-11-05T19:51:58.515Z,27.57
2018-11-05T19:54:29.488Z,27.80
2018-11-05T19:57:00.420Z,25.33
2018-11-05T19:59:31.357Z,28.47
2018-11-05T20:02:02.223Z,27.37
2018-11-05T20:04:33.168Z,28.00
2018-11-05T20:07:04.923Z,32.67
2018-11-05T20:09:35.840Z,28.53
2018-11-05T20:12:07.322Z,30.50
2018-11-05T20:14:38.501Z,31.90
2018-11-05T20:17:09.504Z,27.20
2018-11-05T20:19:40.540Z,29.33
2018-11-05T20:22:11.616Z,31.23
2018-11-05T20:24:42.599Z,32.70
2018-11-05T20:27:13.499Z,29.87
2018-11-05T20:29:44.716Z,29.43
2018-11-05T20:32:16.195Z,31.23
2018-11-05T20:34:47.264Z,29.97
2018-11-05T20:37:18.206Z,31.37
2018-11-05T20:39:49.517Z,30.07
2018-11-05T20:42:20.366Z,31.13
2018-11-05T20:44:51.531Z,32.70
2018-11-05T20:47:22.773Z,27.57
2018-11-05T20:49:53.995Z,29.10
2018-11-05T20:52:25.313Z,41.43
2018-11-05T20:54:56.261Z,27.30
2018-11-05T20:57:27.674Z,24.40
2018-11-05T20:59:58.717Z,30.77
2018-11-05T21:02:30.173Z,28.30
2018-11-05T21:05:01.015Z,35.20
2018-11-05T21:07:31.917Z,30.33
2018-11-05T21:10:03.024Z,27.47
2018-11-05T21:12:34.019Z,33.20
2018-11-05T21:15:05.453Z,30.00
2018-11-05T21:17:36.386Z,30.33
2018-11-05T21:20:07.259Z,35.13
2018-11-05T21:22:38.538Z,26.73
2018-11-05T21:25:09.807Z,31.20
2018-11-05T21:27:41.815Z,30.00
2018-11-05T21:30:15.718Z,34.37
2018-11-05T21:32:46.647Z,30.80
2018-11-05T21:35:18.817Z,28.90
2018-11-05T21:37:50.353Z,33.97
2018-11-05T21:40:21.662Z,28.13
2018-11-05T21:42:52.525Z,39.03
2018-11-05T21:45:23.640Z,28.20
2018-11-05T21:47:54.616Z,27.87
2018-11-05T21:50:27.223Z,27.93
2018-11-05T21:52:58.395Z,35.43
2018-11-05T21:55:29.280Z,37.10
2018-11-05T21:58:00.237Z,36.90
2018-11-05T22:00:31.863Z,40.37
2018-11-05T22:03:06.144Z,34.70
2018-11-05T22:05:37.117Z,34.37
2018-11-05T22:08:08.336Z,37.83
2018-11-05T22:10:39.228Z,38.17
2018-11-05T22:13:10.456Z,28.23
2018-11-05T22:15:45.434Z,35.27
2018-11-05T22:18:17.304Z,33.00
2018-11-05T22:20:48.153Z,34.30
2018-11-05T22:23:19.392Z,40.93
2018-11-05T22:25:50.359Z,39.10
2018-11-05T22:28:21.497Z,42.87
2018-11-05T22:30:52.530Z,38.60
2018-11-05T22:33:23.621Z,41.83
2018-11-05T22:35:54.779Z,40.17
2018-11-05T22:38:25.761Z,47.13
2018-11-05T22:40:56.680Z,46.40
2018-11-05T22:43:27.855Z,40.00
2018-11-05T22:45:58.799Z,37.70
2018-11-05T22:48:30.204Z,41.73
2018-11-05T22:51:01.286Z,50.20
2018-11-05T22:53:32.222Z,42.37
2018-11-05T22:56:03.470Z,43.57
2018-11-05T22:58:34.677Z,37.97
2018-11-05T23:01:09.753Z,55.00
2018-11-05T23:03:41.084Z,58.00
2018-11-05T23:06:12.203Z,56.50
2018-11-05T23:08:43.344Z,66.17
2018-11-05T23:11:14.847Z,63.43
2018-11-05T23:13:45.741Z,62.40
2018-11-05T23:16:16.645Z,50.67
2018-11-05T23:18:48.135Z,58.30
2018-11-05T23:21:19.415Z,67.67
2018-11-05T23:23:50.341Z,66.83
2018-11-05T23:26:21.574Z,57.30
2018-11-05T23:28:52.912Z,69.30
2018-11-05T23:31:24.193Z,64.70
2018-11-05T23:33:55.443Z,59.23
2018-11-05T23:36:26.357Z,59.10
2018-11-05T23:38:57.554Z,47.80
2018-11-05T23:41:28.527Z,50.57
2018-11-05T23:43:59.751Z,59.47
2018-11-05T23:46:30.884Z,51.93
2018-11-05T23:49:01.874Z,51.77
2018-11-05T23:51:33.418Z,54.97
2018-11-05T23:54:04.302Z,57.30
2018-11-05T23:56:35.119Z,60.27
2018-11-05T23:59:06.225Z,62.17
